createdAt,value
2023-05-06T00:02:15.001Z,18.37
2023-05-06T00:04:41.898Z,18.17
2023-05-06T00:07:08.676Z,19.00
2023-05-06T00:09:35.443Z,18.13
2023-05-06T00:12:02.151Z,19.20
2023-05-06T00:14:28.902Z,17.23
2023-05-06T00:16:55.721Z,19.43
2023-05-06T00:19:22.674Z,19.20
2023-05-06T00:21:49.479Z,18.83
2023-05-06T00:24:16.194Z,19.00
2023-05-06T00:26:42.957Z,20.40
2023-05-06T00:29:09.812Z,19.60
2023-05-06T00:31:36.524Z,19.43
2023-05-06T00:34:03.294Z,19.43
2023-05-06T00:36:30.116Z,19.60
2023-05-06T00:38:57.221Z,20.47
2023-05-06T00:41:23.953Z,20.30
2023-05-06T00:43:50.793Z,21.83
2023-05-06T00:46:18.477Z,19.80
2023-05-06T00:48:45.429Z,20.20
2023-05-06T00:51:14.595Z,20.40
2023-05-06T00:53:41.649Z,21.17
2023-05-06T00:56:08.555Z,21.17
2023-05-06T00:58:36.110Z,20.00
2023-05-06T01:01:03.229Z,22.07
2023-05-06T01:03:31.363Z,20.60
2023-05-06T01:06:40.405Z,21.27
2023-05-06T01:09:38.420Z,20.60
2023-05-06T01:12:27.192Z,20.00
2023-05-06T01:15:14.891Z,18.93
2023-05-06T01:17:46.271Z,20.07
2023-05-06T01:20:13.360Z,20.40
2023-05-06T01:22:40.189Z,20.33
2023-05-06T01:25:07.668Z,20.00
2023-05-06T01:27:34.866Z,21.50
2023-05-06T01:30:02.349Z,22.00
2023-05-06T01:32:34.697Z,21.73
2023-05-06T01:35:19.965Z,21.50
2023-05-06T01:38:00.254Z,22.03
2023-05-06T01:40:30.253Z,21.70
2023-05-06T01:42:57.496Z,22.83
2023-05-06T01:45:27.999Z,24.33
2023-05-06T01:47:55.650Z,23.63
2023-05-06T01:50:22.546Z,25.17
2023-05-06T01:53:02.434Z,24.17
2023-05-06T01:55:29.442Z,23.10
2023-05-06T01:57:56.816Z,25.60
2023-05-06T02:00:27.043Z,25.00
2023-05-06T02:02:53.987Z,24.43
2023-05-06T02:05:20.833Z,23.60
2023-05-06T02:07:47.632Z,23.27
2023-05-06T02:10:14.384Z,23.97
2023-05-06T02:12:41.194Z,25.20
2023-05-06T02:15:08.769Z,25.00
2023-05-06T02:17:37.584Z,23.37
2023-05-06T02:20:05.974Z,25.53
2023-05-06T02:22:33.159Z,25.90
2023-05-06T02:24:59.914Z,26.53
2023-05-06T02:27:26.733Z,24.60
2023-05-06T02:29:53.492Z,24.47
2023-05-06T02:32:20.258Z,25.07
2023-05-06T02:34:47.396Z,25.53
2023-05-06T02:37:14.150Z,23.00
2023-05-06T02:39:40.836Z,23.13
2023-05-06T02:42:07.784Z,23.97
2023-05-06T02:44:34.873Z,23.50
2023-05-06T02:47:01.625Z,24.60
2023-05-06T02:49:28.787Z,23.40
2023-05-06T02:51:55.585Z,23.50
2023-05-06T02:54:22.316Z,22.10
2023-05-06T02:56:49.071Z,22.17
2023-05-06T02:59:16.410Z,22.27
2023-05-06T03:01:43.129Z,22.10
2023-05-06T03:04:10.325Z,22.00
2023-05-06T03:06:37.122Z,22.93
2023-05-06T03:09:05.046Z,24.80
2023-05-06T03:11:32.931Z,23.37
2023-05-06T03:13:59.657Z,23.90
2023-05-06T03:16:26.490Z,25.20
2023-05-06T03:18:53.272Z,25.10
2023-05-06T03:21:20.103Z,23.60
2023-05-06T03:23:46.897Z,23.47
2023-05-06T03:26:14.062Z,23.00
2023-05-06T03:28:43.439Z,24.63
2023-05-06T03:31:10.326Z,24.20
2023-05-06T03:33:37.104Z,23.97
2023-05-06T03:36:04.447Z,24.90
2023-05-06T03:38:31.195Z,24.80
2023-05-06T03:40:57.956Z,24.20
2023-05-06T03:43:24.736Z,22.97
2023-05-06T03:45:51.514Z,24.17
2023-05-06T03:48:18.281Z,24.30
2023-05-06T03:50:45.175Z,23.90
2023-05-06T03:53:12.424Z,24.27
2023-05-06T03:55:39.208Z,23.60
2023-05-06T03:58:06.118Z,23.53
2023-05-06T04:00:34.105Z,26.43
2023-05-06T04:03:00.995Z,23.97
2023-05-06T04:05:28.210Z,23.47
2023-05-06T04:07:55.392Z,23.80
2023-05-06T04:10:22.165Z,22.60
2023-05-06T04:12:49.329Z,24.40
2023-05-06T04:15:16.208Z,24.80
2023-05-06T04:17:42.902Z,23.87
2023-05-06T04:20:11.551Z,23.47
2023-05-06T04:22:38.751Z,25.43
2023-05-06T04:25:06.673Z,24.93
2023-05-06T04:27:33.427Z,23.20
2023-05-06T04:30:00.268Z,22.67
2023-05-06T04:32:27.042Z,22.90
2023-05-06T04:34:54.116Z,22.00
2023-05-06T04:37:21.161Z,22.77
2023-05-06T04:39:48.764Z,23.30
2023-05-06T04:42:16.246Z,21.33
2023-05-06T04:44:43.462Z,21.97
2023-05-06T04:47:10.253Z,21.17
2023-05-06T04:49:36.952Z,21.37
2023-05-06T04:52:04.210Z,20.93
2023-05-06T04:54:30.976Z,21.43
2023-05-06T04:56:57.693Z,21.60
2023-05-06T04:59:24.467Z,21.23
2023-05-06T05:01:51.265Z,22.23
2023-05-06T05:04:18.038Z,21.80
2023-05-06T05:06:44.797Z,21.90
2023-05-06T05:09:11.482Z,21.60
2023-05-06T05:11:38.430Z,24.50
2023-05-06T05:14:05.363Z,22.97
2023-05-06T05:16:32.229Z,23.30
2023-05-06T05:19:00.340Z,22.80
2023-05-06T05:21:29.005Z,21.80
2023-05-06T05:23:55.707Z,22.57
2023-05-06T05:26:22.444Z,20.90
2023-05-06T05:28:49.125Z,19.83
2023-05-06T05:31:15.908Z,21.53
2023-05-06T05:33:42.642Z,21.63
2023-05-06T05:36:09.530Z,20.63
2023-05-06T05:38:36.345Z,21.20
2023-05-06T05:41:03.309Z,21.60
2023-05-06T05:43:31.350Z,21.67
2023-05-06T05:45:58.201Z,22.37
2023-05-06T05:48:24.939Z,20.47
2023-05-06T05:50:51.722Z,21.87
2023-05-06T05:53:18.502Z,20.73
2023-05-06T05:55:45.292Z,21.70
2023-05-06T05:58:12.091Z,20.83
2023-05-06T06:00:38.839Z,20.27
2023-05-06T06:03:06.182Z,20.97
2023-05-06T06:05:33.329Z,21.00
2023-05-06T06:08:02.239Z,21.50
2023-05-06T06:10:30.613Z,20.03
2023-05-06T06:12:57.640Z,20.90
2023-05-06T06:15:24.469Z,20.47
2023-05-06T06:17:54.734Z,20.77
2023-05-06T06:20:21.597Z,20.10
2023-05-06T06:22:48.361Z,19.53
2023-05-06T06:25:15.208Z,21.47
2023-05-06T06:27:41.999Z,20.60
2023-05-06T06:30:09.192Z,19.27
2023-05-06T06:32:35.953Z,18.97
2023-05-06T06:35:02.758Z,19.30
2023-05-06T06:37:29.466Z,19.70
2023-05-06T06:39:56.180Z,18.93
2023-05-06T06:42:23.253Z,19.27
2023-05-06T06:44:49.974Z,20.27
2023-05-06T06:47:16.702Z,19.03
2023-05-06T06:49:43.503Z,17.97
2023-05-06T06:52:10.211Z,18.50
2023-05-06T06:54:38.772Z,17.60
2023-05-06T06:57:06.953Z,18.20
2023-05-06T06:59:33.772Z,19.00
2023-05-06T07:02:00.918Z,17.27
2023-05-06T07:04:27.717Z,17.03
2023-05-06T07:06:54.568Z,18.60
2023-05-06T07:09:21.480Z,18.30
2023-05-06T07:11:48.166Z,17.43
2023-05-06T07:14:14.873Z,18.57
2023-05-06T07:16:42.972Z,17.33
2023-05-06T07:19:11.330Z,17.20
2023-05-06T07:21:38.030Z,16.60
2023-05-06T07:24:05.152Z,17.00
2023-05-06T07:26:35.844Z,16.67
2023-05-06T07:29:04.146Z,14.33
2023-05-06T07:31:32.667Z,15.00
2023-05-06T07:33:59.805Z,15.70
2023-05-06T07:36:29.732Z,15.40
2023-05-06T07:38:56.661Z,16.57
2023-05-06T07:41:23.341Z,16.90
2023-05-06T07:43:50.090Z,16.27
2023-05-06T07:46:16.945Z,16.30
2023-05-06T07:48:43.797Z,14.80
2023-05-06T07:51:10.644Z,15.43
2023-05-06T07:53:40.084Z,16.53
2023-05-06T07:56:07.214Z,15.83
2023-05-06T07:58:34.023Z,14.30
2023-05-06T08:01:00.861Z,16.30
2023-05-06T08:03:27.787Z,14.27
2023-05-06T08:05:55.286Z,14.50
2023-05-06T08:08:23.085Z,14.23
2023-05-06T08:10:49.802Z,13.30
2023-05-06T08:13:16.607Z,13.77
2023-05-06T08:15:43.407Z,14.87
2023-05-06T08:18:21.871Z,12.80
2023-05-06T08:20:49.424Z,13.53
2023-05-06T08:23:16.173Z,13.30
2023-05-06T08:25:43.063Z,13.83
2023-05-06T08:28:09.901Z,12.63
2023-05-06T08:30:36.839Z,12.47
2023-05-06T08:33:03.886Z,12.70
2023-05-06T08:35:30.805Z,12.20
2023-05-06T08:37:57.593Z,10.50
2023-05-06T08:40:27.044Z,13.93
2023-05-06T08:42:57.411Z,11.30
2023-05-06T08:45:24.208Z,12.33
2023-05-06T08:47:51.692Z,11.13
2023-05-06T08:50:18.598Z,11.67
2023-05-06T08:52:45.535Z,11.23
2023-05-06T08:55:12.701Z,12.47
2023-05-06T08:57:40.463Z,13.60
2023-05-06T09:00:11.004Z,11.53
2023-05-06T09:02:40.473Z,12.90
2023-05-06T09:05:10.214Z,12.17
2023-05-06T09:07:37.434Z,10.77
2023-05-06T09:10:13.128Z,11.23
2023-05-06T09:12:40.247Z,10.33
2023-05-06T09:15:07.797Z,10.43
2023-05-06T09:17:34.820Z,10.47
2023-05-06T09:20:01.840Z,10.00
2023-05-06T09:22:30.880Z,10.10
2023-05-06T09:24:58.853Z,9.13
2023-05-06T09:27:34.027Z,9.87
2023-05-06T09:30:09.606Z,9.93
2023-05-06T09:32:39.307Z,9.40
2023-05-06T09:35:08.461Z,9.60
2023-05-06T09:37:35.486Z,8.57
2023-05-06T09:40:02.275Z,8.73
2023-05-06T09:42:30.390Z,8.93
2023-05-06T09:45:01.543Z,7.60
2023-05-06T09:47:34.184Z,9.20
2023-05-06T09:50:04.509Z,8.73
2023-05-06T09:52:31.648Z,8.73
2023-05-06T09:54:58.860Z,10.00
2023-05-06T09:57:26.783Z,9.50
2023-05-06T09:59:55.457Z,9.20
2023-05-06T10:02:23.649Z,9.60
2023-05-06T10:04:52.989Z,9.93
2023-05-06T10:07:22.817Z,9.63
2023-05-06T10:09:51.410Z,9.70
2023-05-06T10:12:20.140Z,10.40
2023-05-06T10:14:47.571Z,9.73
2023-05-06T10:17:14.765Z,9.57
2023-05-06T10:19:46.045Z,9.80
2023-05-06T10:22:30.965Z,9.10
2023-05-06T10:25:12.464Z,8.73
2023-05-06T10:27:43.809Z,10.43
2023-05-06T10:30:14.022Z,9.57
2023-05-06T10:32:43.222Z,9.87
2023-05-06T10:35:22.900Z,8.87
2023-05-06T10:37:52.230Z,10.00
2023-05-06T10:40:22.404Z,10.33
2023-05-06T10:42:49.203Z,9.33
2023-05-06T10:45:16.628Z,8.70
2023-05-06T10:47:58.594Z,9.10
2023-05-06T10:50:26.865Z,8.40
2023-05-06T10:52:59.086Z,8.27
2023-05-06T10:55:29.933Z,7.40
2023-05-06T10:58:01.606Z,8.77
2023-05-06T11:00:33.047Z,7.80
2023-05-06T11:03:12.743Z,7.87
2023-05-06T11:05:49.285Z,7.37
2023-05-06T11:08:27.331Z,7.40
2023-05-06T11:10:54.810Z,7.57
2023-05-06T11:13:29.055Z,6.60
2023-05-06T11:15:57.173Z,8.10
2023-05-06T11:18:27.602Z,7.20
2023-05-06T11:21:00.882Z,7.60
2023-05-06T11:23:43.035Z,7.10
2023-05-06T11:26:11.352Z,7.77
2023-05-06T11:28:39.181Z,7.20
2023-05-06T11:31:07.105Z,6.90
2023-05-06T11:33:35.830Z,6.70
2023-05-06T11:36:03.937Z,6.73
2023-05-06T11:38:47.908Z,6.43
2023-05-06T11:41:17.153Z,6.27
2023-05-06T11:43:47.441Z,6.10
2023-05-06T11:46:14.280Z,5.70
2023-05-06T11:48:41.070Z,5.67
2023-05-06T11:51:08.268Z,5.33
2023-05-06T11:53:35.229Z,5.73
2023-05-06T11:56:02.313Z,5.97
2023-05-06T11:58:30.362Z,6.30
2023-05-06T12:00:58.879Z,6.10
2023-05-06T12:03:27.408Z,5.97
2023-05-06T12:05:55.056Z,4.97
2023-05-06T12:08:32.538Z,4.53
2023-05-06T12:11:07.249Z,5.03
2023-05-06T12:13:37.908Z,5.10
2023-05-06T12:16:07.716Z,4.70
2023-05-06T12:18:34.597Z,4.73
2023-05-06T12:21:06.018Z,4.10
2023-05-06T12:23:32.961Z,4.57
2023-05-06T12:26:02.627Z,4.23
2023-05-06T12:28:30.599Z,3.87
2023-05-06T12:30:57.491Z,4.00
2023-05-06T12:33:24.284Z,4.67
2023-05-06T12:35:57.052Z,4.63
2023-05-06T12:38:23.847Z,3.90
2023-05-06T12:40:55.224Z,5.20
2023-05-06T12:43:30.681Z,4.20
2023-05-06T12:46:08.767Z,5.00
2023-05-06T12:48:35.706Z,4.00
2023-05-06T12:51:19.003Z,4.00
2023-05-06T12:53:46.112Z,7.97
2023-05-06T12:56:13.095Z,4.00
2023-05-06T12:58:39.910Z,4.13
2023-05-06T13:01:07.717Z,3.70
2023-05-06T13:03:38.328Z,3.87
2023-05-06T13:06:05.869Z,3.40
2023-05-06T13:08:32.706Z,3.20
2023-05-06T13:11:01.625Z,3.57
2023-05-06T13:13:28.720Z,3.00
2023-05-06T13:15:56.444Z,3.10
2023-05-06T13:18:23.309Z,3.90
2023-05-06T13:20:51.676Z,3.53
2023-05-06T13:23:19.508Z,3.90
2023-05-06T13:26:02.957Z,3.57
2023-05-06T13:28:32.650Z,3.80
2023-05-06T13:30:59.525Z,4.00
2023-05-06T13:33:26.305Z,4.03
2023-05-06T13:35:53.119Z,3.60
2023-05-06T13:38:19.894Z,3.23
2023-05-06T13:40:53.737Z,3.30
2023-05-06T13:43:21.384Z,4.10
2023-05-06T13:45:48.301Z,3.27
2023-05-06T13:48:15.253Z,3.80
2023-05-06T13:50:42.864Z,3.97
2023-05-06T13:53:10.632Z,4.50
2023-05-06T13:55:37.648Z,4.47
2023-05-06T13:58:06.065Z,4.27
2023-05-06T14:00:33.712Z,4.23
2023-05-06T14:03:00.721Z,4.07
2023-05-06T14:05:27.768Z,4.60
2023-05-06T14:07:54.535Z,4.20
2023-05-06T14:10:21.290Z,4.13
2023-05-06T14:12:48.291Z,4.50
2023-05-06T14:15:15.199Z,3.83
2023-05-06T14:17:42.023Z,3.67
2023-05-06T14:20:09.649Z,3.70
2023-05-06T14:22:42.565Z,4.30
2023-05-06T14:25:10.108Z,4.30
2023-05-06T14:27:37.175Z,5.20
2023-05-06T14:30:09.360Z,4.03
2023-05-06T14:32:36.615Z,3.83
2023-05-06T14:35:04.415Z,4.37
2023-05-06T14:37:31.157Z,4.17
2023-05-06T14:39:57.985Z,3.87
2023-05-06T14:42:24.781Z,4.30
2023-05-06T14:44:51.535Z,3.90
2023-05-06T14:47:18.996Z,4.37
2023-05-06T14:49:45.816Z,3.40
2023-05-06T14:52:12.640Z,3.97
2023-05-06T14:54:42.373Z,4.20
2023-05-06T14:57:10.176Z,3.70
2023-05-06T14:59:38.019Z,3.90
2023-05-06T15:02:09.086Z,4.13
2023-05-06T15:04:36.756Z,4.00
2023-05-06T15:07:03.824Z,3.43
2023-05-06T15:09:31.058Z,3.70
2023-05-06T15:11:58.062Z,4.40
2023-05-06T15:14:24.847Z,3.70
2023-05-06T15:16:55.894Z,4.53
2023-05-06T15:19:22.843Z,4.13
2023-05-06T15:21:49.703Z,3.70
2023-05-06T15:24:16.507Z,4.00
2023-05-06T15:26:43.395Z,4.83
2023-05-06T15:29:10.249Z,3.30
2023-05-06T15:31:39.400Z,4.17
2023-05-06T15:34:07.166Z,3.70
2023-05-06T15:36:33.944Z,4.33
2023-05-06T15:39:01.199Z,3.73
2023-05-06T15:41:30.736Z,3.67
2023-05-06T15:43:58.542Z,4.17
2023-05-06T15:46:26.252Z,3.50
2023-05-06T15:49:08.943Z,3.93
2023-05-06T15:51:39.998Z,4.00
2023-05-06T15:54:06.964Z,4.10
2023-05-06T15:56:39.395Z,4.10
2023-05-06T15:59:08.392Z,4.07
2023-05-06T16:02:18.855Z,4.50
2023-05-06T16:04:23.014Z,4.40
2023-05-06T16:06:50.223Z,4.93
2023-05-06T16:09:17.074Z,4.63
2023-05-06T16:11:43.861Z,4.30
2023-05-06T16:14:10.679Z,4.73
2023-05-06T16:16:37.692Z,4.27
2023-05-06T16:19:04.843Z,5.13
2023-05-06T16:21:31.933Z,5.50
2023-05-06T16:23:58.771Z,5.20
2023-05-06T16:26:25.602Z,4.90
2023-05-06T16:28:53.741Z,4.80
2023-05-06T16:31:20.831Z,5.53
2023-05-06T16:33:47.760Z,5.20
2023-05-06T16:36:14.876Z,5.50
2023-05-06T16:38:41.639Z,4.73
2023-05-06T16:41:08.355Z,5.13
2023-05-06T16:43:35.088Z,4.90
2023-05-06T16:46:01.927Z,6.00
2023-05-06T16:48:28.948Z,6.23
2023-05-06T16:50:55.972Z,6.60
2023-05-06T16:53:22.732Z,5.87
2023-05-06T16:55:50.113Z,7.00
2023-05-06T16:58:16.867Z,5.30
2023-05-06T17:00:43.767Z,5.80
2023-05-06T17:03:11.230Z,6.30
2023-05-06T17:05:38.206Z,5.87
2023-05-06T17:08:05.536Z,6.30
2023-05-06T17:10:32.349Z,5.93
2023-05-06T17:12:59.558Z,6.00
2023-05-06T17:15:26.627Z,5.93
2023-05-06T17:17:54.023Z,6.77
2023-05-06T17:20:20.977Z,6.97
2023-05-06T17:22:47.935Z,5.77
2023-05-06T17:25:15.167Z,6.33
2023-05-06T17:27:41.939Z,5.60
2023-05-06T17:30:12.418Z,6.60
2023-05-06T17:32:39.585Z,7.27
2023-05-06T17:35:07.341Z,6.37
2023-05-06T17:37:34.758Z,6.80
2023-05-06T17:40:02.328Z,7.60
2023-05-06T17:42:30.204Z,7.23
2023-05-06T17:44:56.953Z,6.80
2023-05-06T17:47:23.949Z,6.67
2023-05-06T17:49:53.917Z,6.13
2023-05-06T17:52:20.894Z,7.80
2023-05-06T17:55:05.795Z,7.27
2023-05-06T17:57:37.312Z,7.80
2023-05-06T18:00:04.490Z,8.20
2023-05-06T18:02:31.500Z,7.93
2023-05-06T18:04:58.354Z,7.93
2023-05-06T18:07:25.281Z,7.90
2023-05-06T18:09:52.344Z,8.27
2023-05-06T18:12:19.581Z,7.40
2023-05-06T18:14:46.958Z,7.90
2023-05-06T18:17:13.774Z,6.87
2023-05-06T18:19:40.576Z,7.77
2023-05-06T18:22:07.290Z,7.83
2023-05-06T18:24:34.691Z,7.70
2023-05-06T18:27:02.321Z,8.10
2023-05-06T18:29:30.383Z,7.57
2023-05-06T18:32:42.572Z,7.57
2023-05-06T18:35:10.984Z,8.33
2023-05-06T18:37:38.516Z,8.10
2023-05-06T18:40:06.163Z,8.53
2023-05-06T18:42:33.842Z,8.60
2023-05-06T18:45:02.855Z,7.00
2023-05-06T18:47:29.790Z,7.70
2023-05-06T18:49:57.617Z,6.63
2023-05-06T18:52:24.380Z,7.10
2023-05-06T18:54:51.088Z,7.30
2023-05-06T18:57:19.561Z,6.70
2023-05-06T18:59:47.116Z,6.83
2023-05-06T19:02:14.088Z,7.17
2023-05-06T19:04:40.825Z,6.90
2023-05-06T19:07:07.790Z,7.90
2023-05-06T19:09:37.077Z,6.80
2023-05-06T19:12:04.499Z,7.20
2023-05-06T19:14:37.517Z,6.90
2023-05-06T19:17:04.961Z,6.87
2023-05-06T19:19:31.929Z,7.30
2023-05-06T19:21:59.763Z,7.13
2023-05-06T19:24:26.759Z,7.90
2023-05-06T19:26:53.508Z,8.17
2023-05-06T19:29:20.272Z,6.67
2023-05-06T19:31:46.975Z,8.53
2023-05-06T19:34:13.730Z,7.80
2023-05-06T19:36:40.503Z,7.23
2023-05-06T19:39:07.249Z,8.23
2023-05-06T19:41:34.072Z,8.20
2023-05-06T19:44:00.868Z,8.40
2023-05-06T19:46:27.654Z,7.17
2023-05-06T19:48:54.431Z,7.60
2023-05-06T19:51:21.345Z,8.13
2023-05-06T19:53:49.101Z,7.00
2023-05-06T19:56:17.169Z,7.80
2023-05-06T19:58:44.300Z,7.77
2023-05-06T20:01:11.105Z,8.00
2023-05-06T20:03:38.636Z,9.90
2023-05-06T20:06:06.488Z,10.27
2023-05-06T20:08:33.411Z,10.03
2023-05-06T20:11:00.283Z,9.30
2023-05-06T20:13:27.247Z,10.20
2023-05-06T20:15:54.976Z,11.30
2023-05-06T20:18:21.981Z,13.50
2023-05-06T20:20:48.787Z,14.13
2023-05-06T20:23:15.712Z,14.50
2023-05-06T20:25:42.428Z,17.87
2023-05-06T20:28:09.330Z,17.20
2023-05-06T20:30:36.232Z,16.90
2023-05-06T20:33:03.125Z,18.37
2023-05-06T20:35:29.920Z,18.10
2023-05-06T20:37:56.673Z,17.23
2023-05-06T20:40:23.512Z,17.07
2023-05-06T20:42:50.321Z,19.03
2023-05-06T20:45:17.260Z,18.70
2023-05-06T20:47:44.725Z,18.60
2023-05-06T20:50:16.916Z,19.60
2023-05-06T20:52:45.930Z,17.97
2023-05-06T20:55:16.131Z,18.30
2023-05-06T20:57:46.509Z,19.60
2023-05-06T21:00:13.574Z,19.87
2023-05-06T21:02:41.870Z,19.87
2023-05-06T21:05:10.164Z,20.90
2023-05-06T21:07:37.213Z,22.27
2023-05-06T21:10:05.780Z,21.67
2023-05-06T21:12:33.511Z,19.10
2023-05-06T21:15:00.907Z,20.80
2023-05-06T21:17:28.308Z,20.23
2023-05-06T21:19:55.228Z,20.27
2023-05-06T21:22:23.481Z,20.50
2023-05-06T21:24:51.039Z,19.13
2023-05-06T21:27:17.885Z,20.70
2023-05-06T21:29:44.604Z,19.57
2023-05-06T21:32:11.537Z,19.20
2023-05-06T21:34:38.409Z,21.00
2023-05-06T21:37:05.241Z,20.53
2023-05-06T21:39:32.027Z,20.43
2023-05-06T21:41:58.812Z,21.23
2023-05-06T21:44:25.576Z,21.53
2023-05-06T21:46:52.419Z,20.60
2023-05-06T21:49:21.208Z,20.77
2023-05-06T21:51:48.045Z,22.23
2023-05-06T21:54:15.144Z,20.33
2023-05-06T21:56:41.855Z,23.97
2023-05-06T21:59:08.834Z,21.20
2023-05-06T22:01:36.329Z,20.83
2023-05-06T22:04:09.337Z,22.03
2023-05-06T22:06:36.341Z,22.80
2023-05-06T22:09:04.449Z,23.47
2023-05-06T22:11:31.190Z,22.30
2023-05-06T22:13:57.967Z,22.37
2023-05-06T22:16:24.795Z,21.83
2023-05-06T22:18:51.871Z,22.50
2023-05-06T22:21:18.624Z,22.43
2023-05-06T22:23:45.526Z,22.30
2023-05-06T22:26:12.317Z,23.57
2023-05-06T22:28:39.067Z,22.43
2023-05-06T22:31:05.899Z,23.90
2023-05-06T22:33:32.799Z,23.60
2023-05-06T22:35:59.836Z,23.90
2023-05-06T22:38:26.606Z,22.80
2023-05-06T22:40:53.292Z,23.60
2023-05-06T22:43:20.096Z,24.63
2023-05-06T22:45:46.910Z,24.10
2023-05-06T22:48:13.729Z,24.20
2023-05-06T22:50:40.841Z,24.10
2023-05-06T22:53:14.956Z,23.37
2023-05-06T22:55:42.883Z,23.40
2023-05-06T22:58:09.678Z,24.03
2023-05-06T23:00:36.590Z,23.43
2023-05-06T23:03:03.562Z,22.60
2023-05-06T23:05:30.375Z,23.10
2023-05-06T23:07:57.154Z,23.63
2023-05-06T23:10:23.919Z,23.80
2023-05-06T23:12:50.749Z,23.97
2023-05-06T23:15:17.555Z,23.60
2023-05-06T23:17:44.252Z,23.47
2023-05-06T23:20:12.811Z,22.73
2023-05-06T23:22:39.696Z,23.37
2023-05-06T23:25:08.517Z,23.20
2023-05-06T23:27:37.581Z,23.67
2023-05-06T23:30:04.897Z,23.50
2023-05-06T23:32:32.873Z,24.07
2023-05-06T23:35:00.782Z,23.40
2023-05-06T23:37:27.875Z,24.33
2023-05-06T23:39:54.630Z,24.37
2023-05-06T23:42:21.771Z,24.20
2023-05-06T23:44:48.620Z,25.00
2023-05-06T23:47:15.378Z,24.67
2023-05-06T23:49:42.200Z,22.80
2023-05-06T23:52:09.336Z,23.77
2023-05-06T23:54:36.026Z,23.70
2023-05-06T23:57:02.855Z,23.17
2023-05-06T23:59:32.278Z,24.30
